Αναφορές METAR

 

LGKZ - Kozani (civ/Army, Greece
Distance from station: SW 41km
Updated: 28/09/2022 22:20

 Wind from W
Wind: W 7 km/h
Temperature: 19°C
Dew Point: 7°C
Humidity: 46%
Barometer: 1010 hPa
2022/09/28 19:20 LGKZ 281920Z AUTO 26004KT //// // ////// 19/07 Q1010 RE//
LGTS - Thessaloniki/Mik, Greece
Distance from station: E 64km
Updated: 28/09/2022 22:20
Few Clouds
Few Clouds
 Wind from varies
Wind: varies 6 km/h
Temperature: 23°C
Dew Point: 16°C
Humidity: 65%
Barometer: 1006 hPa
Clouds: Few Clouds
Visibility: 10 km
Cloud details: Few Clouds 914 m
2022/09/28 19:20 LGTS 281920Z VRB03KT 9999 FEW030 23/16 Q1006 NOSIG
 
LGIO - Ioannina, Greece
Distance from station: SW 149km
Updated: 28/09/2022 22:20

 Wind from varies
Wind: varies 2 km/h
Temperature: 15°C
Dew Point: 15°C
Humidity: 100%
Barometer: 1011 hPa
2022/09/28 19:20 LGIO 281920Z AUTO VRB01KT //// // ////// 15/15 Q1011 RE//
LGBL - Nea Anchialos, Greece
Distance from station: SSE 154km
Updated: 28/09/2022 21:50
Few Clouds
Few Clouds
 Wind from NNE
Wind: NNE 13 km/h
Temperature: 25°C
Dew Point: 13°C
Humidity: 47%
Barometer: 1006 hPa
Clouds: Few Clouds
Visibility: 10 km
Cloud details: Few Clouds 1067 m
2022/09/28 18:50 LGBL 281850Z 02007KT 9999 FEW035 25/13 Q1006
 
LGSK - Skiathos Island, Greece
Distance from station: SE 185km
Updated: 28/09/2022 21:50
Few Clouds
Few Clouds
 Wind from calm
Wind: Calm
Temperature: 23°C
Dew Point: 18°C
Humidity: 74%
Barometer: 1006 hPa
Clouds: Few Clouds
Visibility: 10 km
Cloud details: Few Clouds 610 m
2022/09/28 18:50 LGSK 281850Z 00000KT 9999 FEW020 23/18 Q1006
LGKV - Kavala/Chrisoupo, Greece
Distance from station: ENE 208km
Updated: 28/09/2022 22:20
Few Clouds
Few Clouds
 Wind from N
Wind: N 7 km/h
Temperature: 21°C
Dew Point: 16°C
Humidity: 73%
Barometer: 1006 hPa
Clouds: Few Clouds
Visibility: 10 km
Cloud details: Few Clouds 610 m
2022/09/28 19:20 LGKV 281920Z 36004KT 9999 FEW020 21/16 Q1006
 
LGPZ - Preveza/Aktion, Greece
Distance from station: SW 217km
Updated: 28/09/2022 21:50
Few Clouds
Few Clouds
 Wind from calm
Wind: Calm
Temperature: 20°C
Dew Point: 18°C
Humidity: 88%
Barometer: 1009 hPa
Clouds: Few Clouds
Visibility: 10 km
Cloud details: Few Clouds 610 m
2022/09/28 18:50 LGPZ 281850Z 00000KT 9999 FEW020 20/18 Q1009
LGKR - Ioannis Kapodist, Greece
Distance from station: WSW 219km
Updated: 28/09/2022 22:50
Partly cloudy
Partly cloudy
 Wind from ESE
Wind: ESE 15 km/h
Temperature: 21°C
Dew Point: 19°C
Humidity: 88%
Barometer: 1007 hPa
Clouds: Partly cloudy
Visibility: 10 km
Cloud details: Few Clouds 457 m
Partly cloudy 762 m
2022/09/28 19:50 LGKR 281950Z 12008KT 9999 FEW015 SCT025 21/19 Q1007 NOSIG
 
LGSY - Skiros, Greece
Distance from station: SE 261km
Updated: 28/09/2022 21:50
Few Clouds
Few Clouds
 Wind from S
Wind: S 22 km/h
Temperature: 25°C
Dew Point: 18°C
Humidity: 65%
Barometer: 1007 hPa
Clouds: Few Clouds
Visibility: 10 km
Cloud details: Few Clouds 762 m
2022/09/28 18:50 LGSY 281850Z 19012KT 9999 FEW025 25/18 Q1007 RMK FEW090 BLU
LGLM - Limnos Island Ar, Greece
Distance from station: ESE 266km
Updated: 28/09/2022 21:50
Clear
Clear
 Wind from S
Wind: S 7 km/h
Temperature: 22°C
Dew Point: 21°C
Humidity: 94%
Barometer: 1007 hPa
Summary: Clear
Visibility: greater than 10 km
2022/09/28 18:50 LGLM 281850Z 19004KT CAVOK 22/21 Q1007
 
LGRX - Araxos (civ/Afb), Greece
Distance from station: SSW 271km
Updated: 28/09/2022 21:50
Few Clouds
Few Clouds
 Wind from S
Wind: S 9 km/h
Temperature: 22°C
Dew Point: 19°C
Humidity: 83%
Barometer: 1009 hPa
Clouds: Few Clouds
Visibility: 10 km
Cloud details: Few Clouds 762 m
2022/09/28 18:50 LGRX 281850Z 19005KT 9999 FEW025 22/19 Q1009
LGEL - Elefsis (hel-Afb, Greece
Distance from station: SSE 297km
Updated: 28/09/2022 22:20
Clear
Clear
 Wind from varies
Wind: varies 4 km/h
Temperature: 24°C
Dew Point: 16°C
Humidity: 61%
Barometer: 1008 hPa
Summary: Clear
Visibility: greater than 10 km
2022/09/28 19:20 LGEL 281920Z VRB02KT CAVOK 24/16 Q1008
 
LGAD - Andravida (civ/A, Greece
Distance from station: SSW 301km
Updated: 28/09/2022 22:20
Few Clouds
Few Clouds
 Wind from varies
Wind: varies 6 km/h
Temperature: 21°C
Dew Point: 18°C
Humidity: 83%
Barometer: 1010 hPa
Clouds: Few Clouds
Visibility: 10 km
Cloud details: Few Clouds 549 m
2022/09/28 19:20 LGAD 281920Z VRB03KT 9999 FEW018 21/18 Q1010
LGKF - Kefallinia, Greece
Distance from station: SSW 305km
Updated: 28/09/2022 21:50
Partly cloudy
Partly cloudy
 Wind from WSW
Wind: WSW 11 km/h
Temperature: 23°C
Dew Point: 18°C
Humidity: 74%
Barometer: 1009 hPa
Clouds: Partly cloudy
Visibility: 10 km
Cloud details: Partly cloudy 457 m
2022/09/28 18:50 LGKF 281850Z 24006KT 9999 SCT015 23/18 Q1009